Sacramento, California
Traffic Map
Current Weather Conditions
Sacramento, California
Clear
Clear
71°
Feels Like: 71°
Wind Chill: 71° Ceiling: Unl
Heat Index: 71° Visibility: 10mi
Dew Point: 38° Wind: 9mph
Humidity: 30% Direction: 340° (NNW)
Pressure: 29.81in Gusts: 0mph
Raw Report DataKSAC 010353Z AUTO 34008KT 10SM CLR 22/03 A2981 RMK AO2 SLP095 T02170033 TSNO
Traffic Incident Summary
Active as of:
Severity:
Category:
InformationThere was an issue retrieving the traffic information for this location. Please try a different location or try again shortly.
Advertisements
Track Severe Weather on mobile